Time;durP1;ratioP1;P1;durP2;ratioP2;P2;SDS_P1;SDS_P2;PMS_P1;PMS_P2;Temp;Humidity;BMP_temperature;BMP_pressure;BME280_temperature;BME280_humidity;BME280_pressure;Samples;Min_cycle;Max_cycle;Signal;HPM_P1;HPM_P2
2021/09/17 00:00:17;;;;;;;3.15;3.05;;;18.70;65.00;;;;;;5048318;28;20032;-82
2021/09/17 00:02:43;;;;;;;3.47;3.28;;;18.70;65.00;;;;;;5054319;28;20039;-82
2021/09/17 00:05:10;;;;;;;3.20;3.10;;;18.70;65.10;;;;;;5035007;28;20048;-82
2021/09/17 00:07:36;;;;;;;3.38;3.17;;;18.70;65.20;;;;;;5044572;28;20109;-82
2021/09/17 00:10:02;;;;;;;3.00;2.90;;;18.60;65.10;;;;;;5056774;28;20040;-82
2021/09/17 00:12:29;;;;;;;3.05;2.95;;;18.60;65.20;;;;;;5047852;28;20103;-82
2021/09/17 00:14:55;;;;;;;3.38;3.17;;;18.60;65.30;;;;;;5050254;28;20386;-82
2021/09/17 00:17:21;;;;;;;3.40;3.20;;;18.60;65.40;;;;;;5050491;28;20403;-82
2021/09/17 00:19:48;;;;;;;2.83;2.72;;;18.60;65.40;;;;;;5050966;28;20407;-82
2021/09/17 00:22:14;;;;;;;3.40;3.20;;;18.60;65.40;;;;;;5049911;28;20434;-82
2021/09/17 00:24:40;;;;;;;4.60;3.35;;;18.50;65.40;;;;;;5047686;28;20025;-82
2021/09/17 00:27:06;;;;;;;3.10;3.00;;;18.50;65.40;;;;;;5047876;28;20478;-82
2021/09/17 00:29:32;;;;;;;2.80;2.70;;;18.50;65.50;;;;;;5053430;28;20374;-82
2021/09/17 00:31:58;;;;;;;3.20;3.10;;;18.50;65.50;;;;;;5053315;28;20410;-82
2021/09/17 00:34:25;;;;;;;3.42;3.22;;;18.40;65.60;;;;;;5054064;28;20418;-82
2021/09/17 00:36:51;;;;;;;3.55;3.35;;;18.40;65.70;;;;;;5051235;28;20399;-82
2021/09/17 00:39:17;;;;;;;3.88;3.67;;;18.40;65.70;;;;;;5052733;28;20394;-82
2021/09/17 00:41:43;;;;;;;3.08;2.97;;;18.40;65.70;;;;;;5054360;28;20028;-82
2021/09/17 00:44:10;;;;;;;3.47;3.28;;;18.40;65.80;;;;;;5037992;28;20037;-82
2021/09/17 00:46:36;;;;;;;3.53;3.22;;;18.40;66.60;;;;;;5052487;28;20041;-82
2021/09/17 00:49:03;;;;;;;3.20;3.08;;;18.30;65.80;;;;;;5052886;28;20028;-82
2021/09/17 00:51:29;;;;;;;3.30;3.20;;;18.30;65.90;;;;;;5047809;28;20503;-82
2021/09/17 00:53:55;;;;;;;3.28;3.08;;;18.30;65.90;;;;;;5052438;28;20025;-81
2021/09/17 00:56:21;;;;;;;3.05;2.95;;;18.30;66.00;;;;;;5041005;28;20029;-82
2021/09/17 00:58:48;;;;;;;3.58;3.33;;;18.30;66.10;;;;;;5055055;28;20033;-82
2021/09/17 01:01:14;;;;;;;3.40;3.20;;;18.20;66.10;;;;;;5055570;28;20044;-82
2021/09/17 01:03:40;;;;;;;2.92;2.83;;;18.20;66.10;;;;;;5058884;28;20028;-82
2021/09/17 01:06:06;;;;;;;6.90;3.40;;;18.20;66.10;;;;;;5049957;28;20045;-83
2021/09/17 01:08:32;;;;;;;3.53;3.13;;;18.20;66.20;;;;;;5059947;28;20029;-82
2021/09/17 01:10:59;;;;;;;3.33;3.13;;;18.20;66.20;;;;;;5052317;28;20033;-82
2021/09/17 01:13:26;;;;;;;3.40;3.15;;;18.20;66.20;;;;;;5052369;28;20032;-82
2021/09/17 01:15:52;;;;;;;3.00;2.90;;;18.20;66.30;;;;;;5045919;28;20033;-82
2021/09/17 01:18:18;;;;;;;3.10;3.00;;;18.20;66.40;;;;;;5045884;28;20032;-83
2021/09/17 01:20:44;;;;;;;3.40;3.20;;;18.10;66.30;;;;;;5051881;28;20052;-82
2021/09/17 01:23:11;;;;;;;3.47;3.17;;;18.10;66.30;;;;;;5065838;28;20040;-82
2021/09/17 01:25:37;;;;;;;3.00;2.90;;;18.10;66.40;;;;;;5058842;28;20045;-83
2021/09/17 01:28:04;;;;;;;3.92;3.72;;;18.10;66.50;;;;;;5050645;28;20029;-82
2021/09/17 01:30:30;;;;;;;3.60;3.40;;;18.00;66.40;;;;;;5056256;28;20033;-82
2021/09/17 01:32:56;;;;;;;3.60;3.35;;;18.00;66.50;;;;;;5036168;28;20041;-83
2021/09/17 01:35:23;;;;;;;4.45;3.10;;;18.00;66.50;;;;;;5065744;28;20036;-82
2021/09/17 01:37:49;;;;;;;3.20;3.10;;;18.00;66.60;;;;;;5043625;28;20033;-82
2021/09/17 01:40:16;;;;;;;3.58;3.35;;;18.00;66.60;;;;;;5055646;28;20045;-82
2021/09/17 01:42:42;;;;;;;3.30;3.10;;;18.00;66.60;;;;;;5051070;28;20037;-82
2021/09/17 01:45:09;;;;;;;3.70;3.35;;;18.00;66.70;;;;;;5060242;28;20036;-82
2021/09/17 01:47:35;;;;;;;3.05;2.95;;;18.00;66.70;;;;;;5051173;28;20419;-82
2021/09/17 01:50:01;;;;;;;3.78;3.58;;;18.00;66.80;;;;;;5047951;28;20025;-82
2021/09/17 01:52:27;;;;;;;3.60;3.40;;;18.00;66.80;;;;;;5051221;28;20037;-82
2021/09/17 01:54:53;;;;;;;3.30;3.15;;;17.90;66.70;;;;;;5048425;28;20025;-82
2021/09/17 01:57:19;;;;;;;3.33;3.22;;;17.90;66.80;;;;;;5045922;28;20052;-82
2021/09/17 01:59:46;;;;;;;3.60;3.40;;;17.90;66.90;;;;;;5052315;28;20029;-82
2021/09/17 02:02:12;;;;;;;3.90;3.70;;;17.90;66.90;;;;;;5038427;28;20045;-82
2021/09/17 02:04:38;;;;;;;3.85;3.65;;;17.90;66.90;;;;;;5065519;28;20036;-82
2021/09/17 02:07:04;;;;;;;3.25;3.15;;;17.90;66.90;;;;;;5056534;28;20060;-82
2021/09/17 02:09:30;;;;;;;3.75;3.55;;;17.90;66.90;;;;;;5051554;28;20032;-82
2021/09/17 02:11:56;;;;;;;3.25;3.15;;;17.90;66.90;;;;;;5065815;28;20036;-81
2021/09/17 02:14:22;;;;;;;3.58;3.38;;;17.90;66.90;;;;;;5052307;28;20114;-82
2021/09/17 02:16:49;;;;;;;3.75;3.55;;;17.90;66.90;;;;;;5038631;28;20042;-82
2021/09/17 02:19:15;;;;;;;3.70;3.50;;;17.90;67.00;;;;;;5051396;28;20501;-82
2021/09/17 02:21:41;;;;;;;3.63;3.42;;;17.90;67.10;;;;;;5051473;28;20406;-82
2021/09/17 02:24:07;;;;;;;4.40;4.20;;;17.90;67.10;;;;;;5050466;28;20044;-82
2021/09/17 02:26:33;;;;;;;3.35;3.22;;;17.90;67.10;;;;;;5055472;28;20045;-82
2021/09/17 02:29:00;;;;;;;3.80;3.60;;;17.90;67.10;;;;;;5051117;28;20056;-82
2021/09/17 02:31:26;;;;;;;3.63;3.42;;;18.00;67.20;;;;;;5043932;28;20721;-82
2021/09/17 02:33:53;;;;;;;3.60;3.40;;;18.00;67.20;;;;;;5044933;28;20478;-82
2021/09/17 02:36:19;;;;;;;3.88;3.67;;;18.00;67.10;;;;;;5037596;28;20356;-82
2021/09/17 02:38:45;;;;;;;3.65;3.45;;;18.00;67.20;;;;;;5053841;28;20029;-82
2021/09/17 02:41:11;;;;;;;3.95;3.75;;;18.00;67.10;;;;;;5043047;28;20033;-82
2021/09/17 02:43:38;;;;;;;3.80;3.50;;;18.00;67.10;;;;;;5050543;28;20040;-82
2021/09/17 02:46:04;;;;;;;4.05;3.75;;;18.00;67.20;;;;;;5052108;27;20044;-82
2021/09/17 02:48:30;;;;;;;4.20;3.90;;;18.00;67.20;;;;;;5053784;28;20589;-82
2021/09/17 02:50:56;;;;;;;3.92;3.72;;;18.00;67.20;;;;;;5055508;28;20025;-82
2021/09/17 02:53:22;;;;;;;3.78;3.58;;;18.00;67.20;;;;;;5051717;28;20475;-82
2021/09/17 02:55:48;;;;;;;3.80;3.55;;;18.00;67.30;;;;;;5056336;28;20029;-82
2021/09/17 02:58:15;;;;;;;4.30;4.03;;;17.90;67.30;;;;;;5057008;28;20041;-82
2021/09/17 03:00:42;;;;;;;3.60;3.40;;;17.90;67.50;;;;;;5050614;27;20049;-82
2021/09/17 03:03:09;;;;;;;3.65;3.45;;;17.90;67.40;;;;;;5039519;28;20025;-82
2021/09/17 03:05:35;;;;;;;3.70;3.50;;;17.90;67.50;;;;;;5037155;28;20498;-81
2021/09/17 03:08:01;;;;;;;3.63;3.35;;;17.90;67.50;;;;;;5051033;28;20033;-82
2021/09/17 03:10:27;;;;;;;5.30;3.67;;;17.90;67.40;;;;;;5049569;28;20033;-82
2021/09/17 03:12:53;;;;;;;3.90;3.60;;;17.90;67.50;;;;;;5054818;28;20028;-82
2021/09/17 03:15:19;;;;;;;4.15;3.95;;;17.90;67.50;;;;;;5040123;28;20482;-81
2021/09/17 03:17:45;;;;;;;3.50;3.30;;;17.90;67.50;;;;;;5041524;28;20096;-82
2021/09/17 03:20:12;;;;;;;3.67;3.47;;;17.90;67.70;;;;;;5051097;28;20048;-82
2021/09/17 03:22:38;;;;;;;3.15;3.05;;;17.80;67.60;;;;;;5049913;28;20471;-85
2021/09/17 03:25:05;;;;;;;3.60;3.40;;;17.80;67.70;;;;;;5050387;28;20041;-82
2021/09/17 03:27:31;;;;;;;3.03;2.92;;;17.80;67.80;;;;;;5050880;28;20052;-82
2021/09/17 03:29:57;;;;;;;3.63;3.42;;;17.80;67.90;;;;;;5050202;28;20033;-81
2021/09/17 03:32:23;;;;;;;3.45;3.25;;;17.80;67.90;;;;;;5050935;28;20044;-80
2021/09/17 03:34:49;;;;;;;3.55;3.35;;;17.70;67.90;;;;;;5049160;28;20055;-81
2021/09/17 03:37:15;;;;;;;4.03;3.67;;;17.80;68.10;;;;;;5049426;28;20140;-81
2021/09/17 03:39:42;;;;;;;3.58;3.35;;;17.70;68.00;;;;;;5039080;28;20029;-81
2021/09/17 03:42:08;;;;;;;3.10;3.00;;;17.70;68.00;;;;;;5050598;28;20522;-81
2021/09/17 03:44:35;;;;;;;3.60;3.40;;;17.70;68.10;;;;;;5049982;28;20021;-81
2021/09/17 03:47:01;;;;;;;3.17;3.08;;;17.60;68.10;;;;;;5050248;28;20112;-81
2021/09/17 03:49:27;;;;;;;3.38;3.25;;;17.60;68.20;;;;;;5050219;28;20021;-81
2021/09/17 03:51:54;;;;;;;3.75;3.47;;;17.60;68.30;;;;;;5049976;28;20068;-81
2021/09/17 03:54:24;;;;;;;3.08;2.97;;;17.60;68.70;;;;;;5050554;28;20032;-81
2021/09/17 03:56:50;;;;;;;3.50;3.30;;;17.60;68.30;;;;;;5050515;28;20039;-81
2021/09/17 03:59:16;;;;;;;3.47;3.28;;;17.50;68.20;;;;;;5051668;28;20033;-81
2021/09/17 04:01:44;;;;;;;3.72;3.50;;;17.50;68.20;;;;;;5048707;28;20037;-81
2021/09/17 04:04:11;;;;;;;4.10;3.90;;;17.50;68.30;;;;;;5049236;28;20041;-81
2021/09/17 04:06:37;;;;;;;2.83;2.72;;;17.50;68.40;;;;;;5051595;28;20033;-81
2021/09/17 04:09:03;;;;;;;3.58;3.38;;;17.50;68.30;;;;;;5054229;28;20025;-81
2021/09/17 04:11:29;;;;;;;3.25;3.15;;;17.50;68.40;;;;;;5055366;28;20024;-81
2021/09/17 04:13:55;;;;;;;3.03;2.92;;;17.50;68.30;;;;;;5053989;28;20033;-82
2021/09/17 04:16:21;;;;;;;3.00;2.85;;;17.50;68.40;;;;;;5047274;28;20056;-82
2021/09/17 04:18:47;;;;;;;3.50;3.30;;;17.50;68.50;;;;;;5042421;28;20025;-82
2021/09/17 04:21:13;;;;;;;3.00;2.90;;;17.50;68.50;;;;;;5039228;28;20288;-82
2021/09/17 04:23:40;;;;;;;14.45;3.20;;;17.50;68.50;;;;;;5038213;28;20030;-81
2021/09/17 04:26:06;;;;;;;3.30;3.10;;;17.60;68.60;;;;;;5042662;28;20049;-81
2021/09/17 04:28:32;;;;;;;2.88;2.78;;;17.60;68.50;;;;;;5049589;28;20391;-82
2021/09/17 04:30:58;;;;;;;3.60;3.40;;;17.60;68.50;;;;;;5053281;28;20041;-81
2021/09/17 04:33:24;;;;;;;3.70;3.20;;;17.60;68.50;;;;;;5053200;28;20052;-82
2021/09/17 04:35:50;;;;;;;3.90;3.08;;;17.60;68.50;;;;;;5053508;28;20036;-81
2021/09/17 04:38:16;;;;;;;3.38;3.17;;;17.50;68.50;;;;;;5054991;28;20029;-82
2021/09/17 04:40:43;;;;;;;3.40;3.20;;;17.50;68.60;;;;;;5053126;28;20490;-81
2021/09/17 04:43:09;;;;;;;2.63;2.53;;;17.50;68.70;;;;;;5053036;28;20048;-81
2021/09/17 04:45:35;;;;;;;2.60;2.50;;;17.50;68.80;;;;;;5052688;28;20040;-81
2021/09/17 04:48:12;;;;;;;3.00;2.90;;;17.40;68.80;;;;;;5053007;28;20108;-81
2021/09/17 04:50:38;;;;;;;2.97;2.88;;;17.40;68.80;;;;;;5052067;28;20049;-82
2021/09/17 04:53:05;;;;;;;2.72;2.63;;;17.40;68.90;;;;;;5053272;28;20045;-82
2021/09/17 04:55:31;;;;;;;3.50;3.22;;;17.40;68.90;;;;;;5053096;28;20025;-81
2021/09/17 04:58:03;;;;;;;2.78;2.67;;;17.40;69.00;;;;;;5049839;28;20053;-81
2021/09/17 05:00:30;;;;;;;3.10;2.90;;;17.40;69.00;;;;;;5041076;28;20036;-81
2021/09/17 05:02:56;;;;;;;3.95;3.63;;;17.30;69.00;;;;;;5052533;28;20041;-81
2021/09/17 05:05:23;;;;;;;2.60;2.50;;;17.30;69.00;;;;;;5036746;28;20041;-81
2021/09/17 05:07:49;;;;;;;2.83;2.67;;;17.40;69.00;;;;;;5043068;28;20056;-82
2021/09/17 05:10:15;;;;;;;2.70;2.60;;;17.30;69.00;;;;;;5046500;28;20039;-82
2021/09/17 05:12:41;;;;;;;3.08;2.88;;;17.30;69.10;;;;;;5052908;28;20044;-82
2021/09/17 05:15:08;;;;;;;2.80;2.60;;;17.30;69.10;;;;;;5052368;28;20033;-81
2021/09/17 05:17:34;;;;;;;3.10;2.90;;;17.40;69.10;;;;;;5051705;28;20482;-81
2021/09/17 05:20:00;;;;;;;3.22;3.03;;;17.40;69.10;;;;;;5039133;28;20324;-81
2021/09/17 05:22:27;;;;;;;2.80;2.70;;;17.40;69.20;;;;;;5048473;28;20037;-82
2021/09/17 05:24:53;;;;;;;2.97;2.80;;;17.40;69.20;;;;;;5052224;28;20470;-82
2021/09/17 05:27:19;;;;;;;2.80;2.70;;;17.40;69.20;;;;;;5052195;28;20398;-81
2021/09/17 05:29:45;;;;;;;4.35;3.05;;;17.40;69.30;;;;;;5051264;28;20116;-82
2021/09/17 05:32:12;;;;;;;3.10;3.00;;;17.30;69.40;;;;;;5043154;28;20041;-82
2021/09/17 05:34:38;;;;;;;2.97;2.83;;;17.30;69.50;;;;;;5051627;28;20410;-81
2021/09/17 05:37:04;;;;;;;2.67;2.58;;;17.30;69.50;;;;;;5048129;28;20542;-82
2021/09/17 05:39:31;;;;;;;3.28;3.08;;;17.30;69.40;;;;;;5039263;28;20037;-81
2021/09/17 05:41:57;;;;;;;3.03;2.83;;;17.30;69.40;;;;;;5052114;28;20032;-81
2021/09/17 05:44:23;;;;;;;3.13;2.95;;;17.30;69.40;;;;;;5037198;28;20036;-82
2021/09/17 05:46:49;;;;;;;2.72;2.63;;;17.30;69.40;;;;;;5042659;28;20049;-81
2021/09/17 05:49:15;;;;;;;3.25;3.00;;;17.40;69.50;;;;;;5040793;28;20498;-80
2021/09/17 05:51:42;;;;;;;3.30;3.00;;;17.40;69.40;;;;;;5047574;28;20029;-80
2021/09/17 05:54:08;;;;;;;3.00;2.90;;;17.40;69.40;;;;;;5051472;28;20384;-80
2021/09/17 05:56:34;;;;;;;2.92;2.75;;;17.40;69.40;;;;;;5052375;28;20045;-81
2021/09/17 05:59:00;;;;;;;3.28;2.97;;;17.40;69.40;;;;;;5051517;28;20044;-81
2021/09/17 06:01:26;;;;;;;2.72;2.63;;;17.40;69.50;;;;;;5048988;28;20041;-80
2021/09/17 06:03:52;;;;;;;3.05;2.95;;;17.40;69.60;;;;;;5052339;28;20048;-82
2021/09/17 06:06:18;;;;;;;2.80;2.70;;;17.40;69.70;;;;;;5051690;28;20037;-83
2021/09/17 06:08:45;;;;;;;3.10;3.00;;;17.40;69.60;;;;;;5053404;28;20494;-82
2021/09/17 06:11:11;;;;;;;3.20;3.05;;;17.40;69.60;;;;;;5048209;28;20517;-82
2021/09/17 06:13:37;;;;;;;3.40;3.20;;;17.50;69.60;;;;;;5043313;28;20038;-82
2021/09/17 06:16:03;;;;;;;3.60;3.40;;;17.50;69.60;;;;;;5039092;27;20037;-81
2021/09/17 06:18:29;;;;;;;4.32;3.05;;;17.50;69.50;;;;;;5038393;28;20056;-80
2021/09/17 06:20:56;;;;;;;2.83;2.72;;;17.60;69.60;;;;;;5051627;28;20036;-81
2021/09/17 06:23:22;;;;;;;3.28;3.08;;;17.60;69.50;;;;;;5051212;28;20406;-80
2021/09/17 06:25:48;;;;;;;3.47;3.28;;;17.60;69.50;;;;;;5051361;28;20463;-81
2021/09/17 06:28:14;;;;;;;3.90;3.70;;;17.60;69.40;;;;;;5048746;28;20037;-79
2021/09/17 06:30:40;;;;;;;3.42;3.22;;;17.60;69.50;;;;;;5053525;28;20380;-79
2021/09/17 06:33:07;;;;;;;3.10;3.00;;;17.70;69.50;;;;;;5050253;28;20045;-78
2021/09/17 06:35:34;;;;;;;3.20;3.10;;;17.70;69.50;;;;;;5036300;28;20025;-78
2021/09/17 06:38:00;;;;;;;3.40;3.17;;;17.70;69.40;;;;;;5045563;28;20037;-79
2021/09/17 06:40:26;;;;;;;3.42;3.22;;;17.70;69.40;;;;;;5041652;28;20402;-78
2021/09/17 06:42:54;;;;;;;3.30;3.10;;;17.70;69.50;;;;;;5059924;28;20142;-79
2021/09/17 06:45:20;;;;;;;3.40;3.20;;;17.70;69.50;;;;;;5048795;28;20040;-77
2021/09/17 06:47:47;;;;;;;3.40;3.20;;;17.70;69.60;;;;;;5034152;28;20045;-79
2021/09/17 06:50:15;;;;;;;3.55;3.35;;;17.70;69.80;;;;;;5053529;28;20040;-79
2021/09/17 06:52:47;;;;;;;3.15;2.97;;;17.70;69.80;;;;;;5044199;28;20038;-78
2021/09/17 06:55:17;;;;;;;3.30;3.10;;;17.70;69.70;;;;;;5052127;28;20478;-78
2021/09/17 06:57:48;;;;;;;3.50;3.30;;;17.70;69.60;;;;;;5046568;28;20033;-78
2021/09/17 07:00:15;;;;;;;3.55;3.33;;;17.70;69.70;;;;;;5036212;27;20279;-81
2021/09/17 07:02:42;;;;;;;3.72;3.53;;;17.70;69.70;;;;;;5053196;28;20025;-79
2021/09/17 07:05:09;;;;;;;3.40;3.20;;;17.70;69.70;;;;;;5050859;28;20025;-80
2021/09/17 07:07:35;;;;;;;3.40;3.20;;;17.70;69.70;;;;;;5042245;28;20049;-80
2021/09/17 07:10:02;;;;;;;3.40;3.20;;;17.70;69.70;;;;;;5044269;28;20411;-79
2021/09/17 07:12:28;;;;;;;4.50;4.20;;;17.70;69.70;;;;;;5054205;28;20044;-80
2021/09/17 07:14:55;;;;;;;4.50;4.20;;;17.80;69.70;;;;;;5048156;28;20029;-80
2021/09/17 07:17:21;;;;;;;3.70;3.50;;;17.80;69.60;;;;;;5036884;28;20044;-80
2021/09/17 07:19:47;;;;;;;5.88;4.05;;;17.80;69.60;;;;;;5053991;28;20025;-80
2021/09/17 07:22:13;;;;;;;4.60;4.30;;;17.80;69.60;;;;;;5045508;28;20029;-80
2021/09/17 07:24:39;;;;;;;3.83;3.42;;;17.90;69.70;;;;;;5051509;28;20021;-80
2021/09/17 07:27:05;;;;;;;4.32;4.05;;;17.90;69.60;;;;;;5052231;28;20536;-80
2021/09/17 07:29:32;;;;;;;3.60;3.40;;;18.00;69.70;;;;;;5064787;28;20044;-82
2021/09/17 07:31:58;;;;;;;4.50;4.10;;;18.00;69.60;;;;;;5040990;28;20037;-81
2021/09/17 07:34:24;;;;;;;4.47;3.53;;;18.00;69.60;;;;;;5045605;28;20514;-82
2021/09/17 07:36:50;;;;;;;4.35;4.05;;;18.10;69.60;;;;;;5063784;28;20479;-81
2021/09/17 07:39:16;;;;;;;3.30;3.10;;;18.10;69.60;;;;;;5050092;28;20510;-80
2021/09/17 07:41:42;;;;;;;3.28;3.13;;;18.10;69.60;;;;;;5047053;28;20495;-83
2021/09/17 07:44:09;;;;;;;3.70;3.50;;;18.20;69.70;;;;;;5050459;28;20029;-83
2021/09/17 07:46:35;;;;;;;3.92;3.55;;;18.30;69.70;;;;;;5045946;28;20476;-82
2021/09/17 07:49:01;;;;;;;3.97;3.65;;;18.30;69.60;;;;;;5063318;28;20033;-82
2021/09/17 07:51:27;;;;;;;17.08;4.25;;;18.30;69.50;;;;;;5053549;28;20035;-82
2021/09/17 07:53:53;;;;;;;3.80;3.60;;;18.40;69.40;;;;;;5037101;28;20037;-82
2021/09/17 07:56:19;;;;;;;4.07;3.80;;;18.50;69.40;;;;;;5055704;28;20036;-82
2021/09/17 07:58:45;;;;;;;4.20;4.00;;;18.50;69.30;;;;;;5049126;28;20038;-81
2021/09/17 08:01:11;;;;;;;3.65;3.45;;;18.50;69.30;;;;;;5049985;28;20036;-81
2021/09/17 08:03:38;;;;;;;3.75;3.55;;;18.50;69.40;;;;;;5041703;28;20415;-82
2021/09/17 08:06:04;;;;;;;4.07;3.67;;;18.50;69.50;;;;;;5052317;28;20052;-87
2021/09/17 08:08:30;;;;;;;3.92;3.72;;;18.60;69.50;;;;;;5054911;28;20048;-90
2021/09/17 08:10:56;;;;;;;4.05;3.75;;;18.50;70.20;;;;;;5050170;28;20048;-79
2021/09/17 08:13:22;;;;;;;4.00;3.80;;;18.50;69.60;;;;;;5046794;28;20462;-80
2021/09/17 08:15:48;;;;;;;4.70;4.25;;;18.50;69.70;;;;;;5039586;28;20287;-80
2021/09/17 08:18:15;;;;;;;3.70;3.50;;;18.50;69.80;;;;;;5038051;28;20029;-79
2021/09/17 08:20:48;;;;;;;3.42;3.20;;;18.60;69.80;;;;;;5038213;28;20026;-80
2021/09/17 08:23:19;;;;;;;5.07;4.57;;;18.70;69.70;;;;;;5036733;28;20037;-79
2021/09/17 08:25:50;;;;;;;4.00;3.80;;;18.80;69.60;;;;;;5052659;28;20469;-80
2021/09/17 08:28:17;;;;;;;5.05;4.72;;;18.90;69.50;;;;;;5052383;28;20049;-80
2021/09/17 08:30:43;;;;;;;4.70;4.50;;;19.00;69.30;;;;;;5050770;28;20029;-79
2021/09/17 08:33:09;;;;;;;4.45;4.15;;;19.00;69.10;;;;;;5050951;28;20048;-80
2021/09/17 08:35:35;;;;;;;12.40;4.28;;;19.10;69.20;;;;;;5053554;28;20040;-84
2021/09/17 08:38:02;;;;;;;4.20;4.00;;;19.00;69.10;;;;;;5054456;28;20056;-84
2021/09/17 08:40:28;;;;;;;4.30;4.00;;;19.10;69.20;;;;;;5068150;28;20471;-84
2021/09/17 08:42:59;;;;;;;4.10;3.83;;;19.10;69.20;;;;;;5052426;28;20033;-88
2021/09/17 08:45:29;;;;;;;;;;;19.10;69.20;;;;;;5051490;27;20040;-88
2021/09/17 08:47:55;;;;;;;4.75;4.38;;;19.10;69.20;;;;;;5051531;28;19955;-90
2021/09/17 08:50:21;;;;;;;4.18;3.97;;;19.10;69.10;;;;;;5053299;28;20025;-87
2021/09/17 08:52:47;;;;;;;4.18;3.97;;;19.20;69.10;;;;;;5050501;28;20036;-88
2021/09/17 08:55:13;;;;;;;4.63;4.43;;;19.30;69.10;;;;;;5050407;28;20025;-87
2021/09/17 08:57:48;;;;;;;4.28;3.95;;;19.30;68.90;;;;;;5067599;28;20403;-88
2021/09/17 09:00:26;;;;;;;4.45;4.15;;;19.40;68.80;;;;;;5033587;28;20025;-86
2021/09/17 09:02:56;;;;;;;4.80;4.50;;;19.50;68.80;;;;;;5052447;28;20028;-87
2021/09/17 09:05:32;;;;;;;4.95;4.65;;;19.50;68.60;;;;;;5054315;28;20029;-86
2021/09/17 09:07:58;;;;;;;4.50;4.30;;;19.50;68.60;;;;;;5052616;28;20049;-87
2021/09/17 09:10:25;;;;;;;4.75;4.35;;;19.60;68.60;;;;;;5051661;28;20029;-87
2021/09/17 09:12:53;;;;;;;4.93;4.53;;;19.60;68.60;;;;;;5050975;28;20372;-85
2021/09/17 09:15:26;;;;;;;5.53;5.13;;;19.70;68.60;;;;;;5051203;28;20029;-85
2021/09/17 09:17:57;;;;;;;4.65;4.35;;;19.70;68.50;;;;;;5050310;28;20029;-87
2021/09/17 09:20:24;;;;;;;;;;;19.80;68.50;;;;;;5053455;28;20048;-87
2021/09/17 09:23:10;;;;;;;4.75;4.55;;;19.80;68.40;;;;;;5050435;28;19905;-87
2021/09/17 09:25:59;;;;;;;4.60;4.40;;;19.90;68.30;;;;;;5048573;28;20040;-89
2021/09/17 09:28:30;;;;;;;4.68;4.47;;;20.00;68.20;;;;;;5067483;28;20041;-88
2021/09/17 09:30:57;;;;;;;4.40;4.10;;;20.10;68.00;;;;;;5048812;28;20284;-89
2021/09/17 09:33:29;;;;;;;4.93;4.63;;;20.10;67.80;;;;;;5034065;28;20052;-88
2021/09/17 09:36:02;;;;;;;5.53;5.22;;;20.20;67.70;;;;;;5050742;28;20090;-89
2021/09/17 09:38:41;;;;;;;9.80;5.13;;;20.30;67.70;;;;;;5053358;28;20021;-90
2021/09/17 09:41:14;;;;;;;4.88;4.45;;;20.40;67.50;;;;;;5050558;28;20025;-87
2021/09/17 09:44:00;;;;;;;5.00;4.80;;;20.40;67.50;;;;;;5048048;28;20028;-87
2021/09/17 09:46:38;;;;;;;5.18;4.85;;;20.50;67.40;;;;;;5036191;28;20037;-86
2021/09/17 09:49:08;;;;;;;5.68;5.38;;;20.50;67.40;;;;;;5051717;28;20525;-89
2021/09/17 09:51:39;;;;;;;5.38;5.10;;;20.50;67.40;;;;;;5050170;28;20029;-90
2021/09/17 09:54:05;;;;;;;;;;;20.50;67.40;;;;;;5033322;28;20047;-89
2021/09/17 09:56:32;;;;;;;5.18;4.88;;;20.60;67.50;;;;;;5069876;28;20355;-90
2021/09/17 09:59:01;;;;;;;5.70;5.22;;;20.50;67.40;;;;;;5049310;28;20048;-89
2021/09/17 10:01:28;;;;;;;5.28;4.97;;;20.50;67.60;;;;;;5058664;28;20029;-81
2021/09/17 10:03:54;;;;;;;6.72;6.15;;;20.50;67.60;;;;;;5048746;28;20024;-87
2021/09/17 10:06:20;;;;;;;5.40;5.10;;;20.50;67.70;;;;;;5049073;28;20033;-83
2021/09/17 10:08:46;;;;;;;5.38;4.90;;;20.40;67.70;;;;;;5049920;28;20033;-82
2021/09/17 10:11:12;;;;;;;4.45;4.25;;;20.40;67.90;;;;;;5051618;28;20043;-86
2021/09/17 10:13:38;;;;;;;3.92;3.72;;;20.40;68.10;;;;;;5050579;28;20490;-86
2021/09/17 10:16:05;;;;;;;4.60;4.30;;;20.30;68.20;;;;;;5048272;28;20364;-87
2021/09/17 10:18:31;;;;;;;4.70;4.40;;;20.40;68.30;;;;;;5049262;28;20045;-86
2021/09/17 10:20:57;;;;;;;4.53;4.32;;;20.30;68.30;;;;;;5049232;28;20054;-86
2021/09/17 10:23:25;;;;;;;4.80;4.40;;;20.30;68.40;;;;;;5051795;28;20033;-86
2021/09/17 10:26:04;;;;;;;4.68;4.38;;;20.20;68.40;;;;;;5050036;28;20045;-87
2021/09/17 10:28:31;;;;;;;4.40;4.00;;;20.20;68.50;;;;;;5050380;28;20052;-85
2021/09/17 10:31:10;;;;;;;4.15;3.95;;;20.20;68.60;;;;;;5048229;28;20514;-88
2021/09/17 10:33:36;;;;;;;4.40;4.18;;;20.10;68.70;;;;;;5049893;28;20037;-90
2021/09/17 10:36:03;;;;;;;4.35;4.10;;;20.10;68.70;;;;;;5048390;28;20044;-88
2021/09/17 10:38:30;;;;;;;4.35;4.15;;;20.10;68.90;;;;;;5048988;28;20025;-88
2021/09/17 10:41:01;;;;;;;4.78;4.53;;;20.00;68.90;;;;;;5033731;28;20041;-88
2021/09/17 10:43:35;;;;;;;4.90;4.60;;;20.00;69.00;;;;;;5050593;28;20040;-89
2021/09/17 10:46:09;;;;;;;4.95;4.75;;;20.00;69.00;;;;;;5041609;28;20033;-88
2021/09/17 10:48:41;;;;;;;4.85;4.55;;;20.00;69.00;;;;;;5032642;28;20029;-89
2021/09/17 10:51:08;;;;;;;4.78;4.47;;;20.00;69.10;;;;;;5032940;28;20494;-89
2021/09/17 10:53:40;;;;;;;4.57;4.28;;;20.00;69.10;;;;;;5051169;28;20498;-89
2021/09/17 10:56:16;;;;;;;3.95;3.75;;;20.00;69.20;;;;;;5052144;28;20033;-87
2021/09/17 10:58:43;;;;;;;4.03;3.72;;;20.00;69.30;;;;;;5078510;28;20373;-87
2021/09/17 11:01:10;;;;;;;6.65;3.97;;;19.90;69.30;;;;;;5049323;27;20036;-86
2021/09/17 11:03:37;;;;;;;5.93;5.55;;;19.90;69.40;;;;;;5048534;28;20060;-85
2021/09/17 11:09:00;;;;;;;5.25;3.72;;;19.80;69.70;;;;;;5048155;28;20266;-85
2021/09/17 11:11:27;;;;;;;4.05;3.75;;;19.80;69.70;;;;;;5051492;28;20037;-86
2021/09/17 11:14:04;;;;;;;4.00;3.80;;;19.70;69.80;;;;;;5049310;28;20025;-85
2021/09/17 11:16:30;;;;;;;3.83;3.63;;;19.60;69.80;;;;;;5047924;28;20036;-86
2021/09/17 11:19:09;;;;;;;3.72;3.53;;;19.60;70.00;;;;;;5047146;28;20029;-85
2021/09/17 11:21:39;;;;;;;3.67;3.47;;;19.50;70.10;;;;;;5048304;28;20025;-85
2021/09/17 11:24:06;;;;;;;6.97;6.68;;;19.50;70.20;;;;;;5037730;28;20033;-85
2021/09/17 11:26:33;;;;;;;3.60;3.40;;;19.50;70.20;;;;;;5050297;28;20040;-87
2021/09/17 11:29:03;;;;;;;3.80;3.60;;;19.50;70.30;;;;;;5047443;28;20430;-88
2021/09/17 11:31:33;;;;;;;3.40;3.20;;;19.50;70.40;;;;;;5049375;28;20028;-89
2021/09/17 11:34:00;;;;;;;3.58;3.20;;;19.50;70.60;;;;;;5049906;28;20410;-88
2021/09/17 11:36:34;;;;;;;3.85;3.65;;;19.40;70.60;;;;;;5034336;28;20047;-86
2021/09/17 11:39:22;;;;;;;3.45;3.25;;;19.40;70.70;;;;;;5047971;28;20398;-86
2021/09/17 11:41:53;;;;;;;4.03;3.20;;;19.40;70.80;;;;;;5047529;28;20025;-87
2021/09/17 11:44:44;;;;;;;3.17;2.92;;;19.40;70.70;;;;;;5049032;28;20390;-87
2021/09/17 11:47:11;;;;;;;3.60;3.40;;;19.50;70.80;;;;;;5049315;28;20037;-86
2021/09/17 11:49:39;;;;;;;3.50;3.25;;;19.50;70.60;;;;;;5047792;28;20044;-86
2021/09/17 11:52:07;;;;;;;3.58;3.38;;;19.60;70.50;;;;;;5048136;28;20016;-86
2021/09/17 11:54:33;;;;;;;3.65;3.45;;;19.70;70.50;;;;;;5049314;28;20426;-86
2021/09/17 11:57:04;;;;;;;6.15;3.47;;;19.80;70.50;;;;;;5048448;28;20026;-85
2021/09/17 11:59:39;;;;;;;3.88;3.67;;;19.90;70.50;;;;;;5051045;28;20021;-86
2021/09/17 12:02:15;;;;;;;3.85;3.65;;;20.00;70.40;;;;;;5048969;28;20037;-86
2021/09/17 12:05:02;;;;;;;4.60;4.30;;;20.00;70.20;;;;;;5047748;28;20044;-86
2021/09/17 12:07:29;;;;;;;4.55;4.25;;;20.10;70.20;;;;;;5046335;28;20045;-86
2021/09/17 12:09:56;;;;;;;3.92;3.72;;;20.10;70.10;;;;;;5048114;28;20020;-87
2021/09/17 12:12:36;;;;;;;4.15;3.95;;;20.20;70.00;;;;;;5049384;28;20028;-86
2021/09/17 12:15:02;;;;;;;4.00;3.80;;;20.30;70.00;;;;;;5048659;28;20030;-86
2021/09/17 12:17:28;;;;;;;4.60;4.20;;;20.40;70.00;;;;;;5049800;28;20033;-87
2021/09/17 12:20:07;;;;;;;4.68;4.47;;;20.60;69.90;;;;;;5048093;28;20526;-87
2021/09/17 12:23:01;;;;;;;4.70;4.40;;;20.70;69.70;;;;;;5049310;28;20602;-86
2021/09/17 12:25:37;;;;;;;4.85;4.55;;;20.90;69.60;;;;;;5048920;28;20025;-86
2021/09/17 12:28:13;;;;;;;4.90;4.60;;;21.10;69.30;;;;;;5051712;28;20053;-86
2021/09/17 12:30:46;;;;;;;5.43;5.13;;;21.20;69.00;;;;;;5067549;28;20037;-85
2021/09/17 12:33:29;;;;;;;5.38;4.57;;;21.40;69.00;;;;;;5051874;28;20044;-86
2021/09/17 12:36:14;;;;;;;5.32;5.03;;;21.50;68.80;;;;;;5052219;28;20049;-85
2021/09/17 12:38:48;;;;;;;5.00;4.80;;;21.60;68.70;;;;;;5050977;28;20032;-85
2021/09/17 12:41:18;;;;;;;5.00;4.70;;;21.80;68.50;;;;;;5052549;28;20064;-84
2021/09/17 12:43:44;;;;;;;6.47;6.18;;;21.90;68.20;;;;;;5052867;28;20017;-85
2021/09/17 12:46:12;;;;;;;6.47;6.18;;;22.10;68.00;;;;;;5051011;28;20479;-85
2021/09/17 12:48:40;;;;;;;7.20;6.90;;;22.10;67.80;;;;;;5038856;28;20045;-85
2021/09/17 12:51:06;;;;;;;6.82;6.53;;;22.20;67.80;;;;;;5052089;28;20021;-84
2021/09/17 12:53:37;;;;;;;7.40;7.00;;;22.30;67.80;;;;;;5053936;28;20471;-85